createdAt,value
2018-08-03T13:49:01.245Z,50.60
2018-08-03T13:51:32.295Z,51.10
2018-08-03T13:54:06.897Z,49.90
2018-08-03T13:56:36.511Z,48.90
2018-08-03T13:59:06.346Z,49.40
2018-08-03T14:02:44.995Z,49.00
2018-08-03T14:05:13.852Z,49.20
2018-08-03T14:07:42.931Z,48.30
2018-08-03T14:10:11.991Z,48.80
2018-08-03T14:12:40.654Z,48.70
2018-08-03T14:15:09.244Z,48.60
2018-08-03T14:17:37.830Z,47.70
2018-08-03T14:20:07.353Z,49.60
2018-08-03T14:22:36.026Z,47.00
2018-08-03T14:25:05.305Z,49.90
2018-08-03T14:27:34.714Z,48.80
2018-08-03T14:30:04.055Z,47.50
2018-08-03T14:32:32.628Z,48.30
2018-08-03T14:35:02.010Z,47.50
2018-08-03T14:37:31.810Z,46.40
2018-08-03T14:40:03.306Z,45.50
2018-08-03T14:42:32.289Z,46.90
2018-08-03T14:45:02.459Z,44.70
2018-08-03T14:47:34.480Z,44.80
2018-08-03T14:50:03.354Z,44.90
2018-08-03T14:52:33.011Z,45.30
2018-08-03T14:55:02.571Z,44.80
2018-08-03T14:57:31.324Z,43.90
2018-08-03T14:59:59.906Z,45.30
2018-08-03T15:02:28.543Z,44.60
2018-08-03T15:04:57.077Z,44.30
2018-08-03T15:07:26.403Z,43.50
2018-08-03T15:09:55.155Z,43.60
2018-08-03T15:12:23.823Z,43.50
2018-08-03T15:17:20.783Z,44.20
2018-08-03T15:19:49.608Z,43.30
2018-08-03T15:22:19.369Z,43.90
2018-08-03T15:24:48.782Z,43.30
2018-08-03T15:27:19.793Z,44.20
2018-08-03T15:29:50.059Z,44.90
2018-08-03T15:34:48.177Z,44.50
2018-08-03T15:37:17.548Z,44.60
2018-08-03T15:45:53.907Z,44.90
2018-08-03T15:48:41.031Z,44.00
2018-08-03T15:51:19.552Z,45.60
2018-08-03T15:56:41.435Z,45.90
2018-08-03T15:59:48.865Z,45.90
2018-08-03T16:02:26.753Z,45.90
2018-08-03T16:04:58.093Z,45.80
2018-08-03T16:07:39.351Z,45.90
2018-08-03T16:10:12.364Z,45.80
2018-08-03T16:13:04.340Z,45.40
2018-08-03T16:15:33.340Z,45.80
2018-08-03T16:18:04.408Z,44.90
2018-08-03T16:20:43.223Z,45.10
2018-08-03T16:23:23.329Z,46.10
2018-08-03T16:28:29.784Z,45.50
2018-08-03T16:31:06.539Z,45.40
2018-08-03T16:35:05.870Z,45.20
2018-08-03T16:37:46.642Z,45.30
2018-08-03T16:40:17.579Z,45.40
2018-08-03T16:42:59.415Z,44.30
2018-08-03T16:45:28.487Z,45.70
2018-08-03T16:47:58.645Z,45.70
2018-08-03T16:50:28.758Z,46.20
2018-08-03T16:52:58.369Z,45.50
2018-08-03T16:55:43.048Z,46.10
2018-08-03T17:01:47.298Z,46.90
2018-08-03T17:04:17.044Z,45.90
2018-08-03T17:06:52.291Z,46.90
2018-08-03T17:09:22.415Z,48.00
2018-08-03T17:11:54.129Z,48.10
2018-08-03T17:14:25.363Z,48.40
2018-08-03T17:16:54.196Z,49.50
2018-08-03T17:19:22.723Z,49.50
2018-08-03T17:21:55.209Z,50.60
2018-08-03T17:27:30.546Z,51.70
2018-08-03T17:30:01.231Z,53.30
2018-08-03T17:32:33.499Z,53.30
2018-08-03T17:35:03.885Z,54.70
2018-08-03T17:37:33.175Z,54.60
2018-08-03T17:40:01.684Z,55.90
2018-08-03T17:42:31.267Z,55.30
2018-08-03T17:45:11.064Z,55.20
2018-08-03T17:47:46.055Z,55.30
2018-08-03T17:50:15.450Z,56.70
2018-08-03T17:55:51.268Z,57.80
2018-08-03T17:58:20.138Z,58.40
2018-08-03T18:00:49.849Z,58.90
2018-08-03T18:03:18.458Z,60.00
2018-08-03T18:05:47.665Z,60.20
2018-08-03T18:08:17.301Z,60.60
2018-08-03T18:10:46.591Z,60.00
2018-08-03T18:13:15.223Z,61.20
2018-08-03T18:15:44.435Z,61.60
2018-08-03T18:18:16.067Z,61.90
2018-08-03T18:20:45.561Z,62.20
2018-08-03T18:23:14.096Z,62.60
2018-08-03T18:25:43.334Z,63.10
2018-08-03T18:28:20.890Z,64.40
2018-08-03T18:30:52.449Z,64.60
2018-08-03T18:33:23.435Z,65.90
2018-08-03T18:35:53.562Z,67.00
2018-08-03T18:38:24.603Z,67.50
2018-08-03T18:43:33.078Z,69.20
2018-08-03T18:46:09.196Z,69.20
2018-08-03T18:48:38.403Z,69.50
2018-08-03T18:51:08.065Z,69.60
2018-08-03T18:53:37.717Z,70.00
2018-08-03T18:56:13.899Z,70.80
2018-08-03T18:58:46.038Z,72.00
2018-08-03T19:01:17.317Z,72.60
2018-08-03T19:03:51.419Z,73.60
2018-08-03T19:06:35.355Z,74.50
2018-08-03T19:09:09.597Z,75.00
2018-08-03T19:11:38.933Z,74.40
2018-08-03T19:14:09.666Z,74.60
2018-08-03T19:16:43.833Z,74.80
2018-08-03T19:19:25.210Z,75.40
2018-08-03T19:21:55.468Z,76.00
2018-08-03T19:24:29.606Z,76.40
2018-08-03T19:27:22.612Z,76.90
2018-08-03T19:32:43.655Z,77.80
2018-08-03T19:41:18.359Z,79.80
2018-08-03T19:46:39.358Z,80.10
2018-08-03T19:49:27.163Z,81.00
2018-08-03T19:55:29.545Z,82.50
2018-08-03T19:58:21.982Z,83.00
2018-08-03T20:00:58.493Z,83.20
2018-08-03T20:03:28.768Z,83.10
2018-08-03T20:14:47.710Z,85.00
2018-08-03T20:17:19.678Z,85.10
2018-08-03T20:20:14.930Z,84.80
2018-08-03T20:22:58.078Z,85.70
2018-08-03T20:25:57.719Z,86.20
2018-08-03T20:29:38.779Z,86.20
2018-08-03T20:32:25.411Z,85.70
2018-08-03T20:38:03.517Z,87.10
2018-08-03T20:43:52.809Z,87.60
2018-08-03T20:46:32.094Z,88.20
2018-08-03T20:49:11.202Z,88.10
2018-08-03T20:51:59.617Z,88.90
2018-08-03T20:54:38.267Z,88.80
2018-08-03T20:57:08.989Z,89.60
2018-08-03T20:59:41.167Z,90.10
2018-08-03T21:02:27.227Z,90.30
2018-08-03T21:04:56.315Z,90.30
2018-08-03T21:07:27.848Z,90.30
2018-08-03T21:10:06.847Z,90.40
2018-08-03T21:12:47.677Z,90.30
2018-08-03T21:15:34.103Z,90.10
2018-08-03T21:18:20.007Z,90.60
2018-08-03T21:20:51.208Z,90.20
2018-08-03T21:23:44.047Z,90.40
2018-08-03T21:26:15.821Z,90.40
2018-08-03T21:28:45.199Z,90.70
2018-08-03T21:31:18.256Z,90.90
2018-08-03T21:33:49.096Z,91.00
2018-08-03T21:36:20.593Z,91.00
2018-08-03T21:38:50.027Z,91.10
2018-08-03T21:41:18.564Z,91.20
2018-08-03T21:43:49.837Z,91.40
2018-08-03T21:46:27.725Z,91.50
2018-08-03T21:48:56.800Z,91.80
2018-08-03T21:51:25.992Z,91.90
2018-08-03T21:54:01.541Z,91.70
2018-08-03T21:56:35.697Z,91.90
2018-08-03T21:59:08.230Z,91.70
2018-08-03T22:01:46.603Z,91.90
2018-08-03T22:04:17.231Z,92.00
2018-08-03T22:06:46.661Z,91.90
2018-08-03T22:09:20.963Z,91.40
2018-08-03T22:11:54.090Z,91.40
2018-08-03T22:14:23.301Z,91.40
2018-08-03T22:16:56.255Z,91.70
2018-08-03T22:19:33.423Z,92.10
2018-08-03T22:22:06.912Z,92.20
2018-08-03T22:24:36.374Z,92.00
2018-08-03T22:27:11.247Z,92.20
2018-08-03T22:29:40.701Z,92.10
2018-08-03T22:32:12.463Z,92.20
2018-08-03T22:37:21.917Z,92.20
2018-08-03T22:39:52.529Z,92.30
2018-08-03T22:42:26.739Z,92.40
2018-08-03T22:44:58.088Z,92.20
2018-08-03T22:47:31.338Z,92.20
2018-08-03T22:50:00.800Z,92.20
2018-08-03T22:52:34.116Z,92.20
2018-08-03T22:55:05.677Z,92.30
2018-08-03T22:57:36.902Z,92.30
2018-08-03T23:00:08.475Z,92.30
2018-08-03T23:02:39.565Z,92.80
2018-08-03T23:05:12.328Z,92.50
2018-08-03T23:07:45.366Z,92.30
2018-08-03T23:10:15.566Z,92.40
2018-08-03T23:12:46.022Z,92.60
2018-08-03T23:15:15.150Z,92.90
2018-08-03T23:17:49.436Z,92.90
2018-08-03T23:20:19.703Z,93.00
2018-08-03T23:22:49.362Z,93.10
2018-08-03T23:25:19.262Z,93.00
2018-08-03T23:27:52.092Z,93.40
2018-08-03T23:30:24.380Z,93.50
2018-08-03T23:32:57.925Z,93.70
2018-08-03T23:35:28.852Z,93.60
2018-08-03T23:37:59.609Z,93.70
2018-08-03T23:40:30.908Z,93.80
2018-08-03T23:43:05.158Z,93.80
2018-08-03T23:45:38.029Z,94.00
2018-08-03T23:48:11.361Z,94.00
2018-08-03T23:50:42.490Z,93.70
2018-08-03T23:53:12.499Z,94.10
2018-08-03T23:55:43.760Z,94.10
2018-08-03T23:58:14.291Z,94.10
